createdAt,value
2023-05-09T00:00:06.551Z,0.40
2023-05-09T00:02:36.265Z,0.50
2023-05-09T00:05:05.419Z,0.60
2023-05-09T00:07:33.868Z,0.50
2023-05-09T00:10:04.133Z,0.70
2023-05-09T00:12:32.593Z,0.50
2023-05-09T00:15:01.270Z,0.60
2023-05-09T00:17:31.360Z,0.77
2023-05-09T00:20:01.644Z,0.60
2023-05-09T00:22:30.119Z,0.63
2023-05-09T00:24:58.563Z,0.67
2023-05-09T00:27:30.768Z,0.50
2023-05-09T00:29:59.519Z,0.60
2023-05-09T00:32:29.276Z,0.70
2023-05-09T00:34:57.841Z,0.60
2023-05-09T00:37:26.483Z,0.70
2023-05-09T00:39:54.905Z,0.70
2023-05-09T00:42:23.344Z,0.60
2023-05-09T00:44:53.125Z,0.47
2023-05-09T00:47:24.290Z,0.50
2023-05-09T00:49:52.887Z,0.67
2023-05-09T00:52:23.458Z,0.70
2023-05-09T00:54:53.043Z,0.70
2023-05-09T00:57:21.760Z,0.60
2023-05-09T00:59:53.874Z,0.60
2023-05-09T01:02:22.534Z,0.50
2023-05-09T01:04:51.309Z,0.60
2023-05-09T01:07:28.994Z,0.60
2023-05-09T01:10:07.712Z,0.77
2023-05-09T01:12:45.390Z,0.70
2023-05-09T01:15:23.785Z,0.50
2023-05-09T01:17:59.667Z,0.73
2023-05-09T01:20:34.754Z,0.67
2023-05-09T01:23:32.768Z,0.60
2023-05-09T01:26:06.019Z,0.50
2023-05-09T01:28:57.113Z,0.70
2023-05-09T01:31:28.716Z,0.60
2023-05-09T01:34:01.328Z,0.63
2023-05-09T01:36:33.292Z,0.60
2023-05-09T01:39:04.522Z,0.67
2023-05-09T01:41:37.531Z,0.60
2023-05-09T01:44:10.513Z,0.80
2023-05-09T01:46:41.483Z,0.60
2023-05-09T01:49:12.387Z,0.70
2023-05-09T01:51:43.859Z,0.60
2023-05-09T01:54:14.890Z,0.53
2023-05-09T01:56:44.706Z,0.70
2023-05-09T01:59:16.426Z,0.60
2023-05-09T02:01:48.233Z,0.70
2023-05-09T02:04:18.571Z,0.67
2023-05-09T02:06:50.833Z,0.70
2023-05-09T02:09:20.224Z,0.73
2023-05-09T02:11:48.764Z,0.60
2023-05-09T02:14:17.374Z,0.87
2023-05-09T02:16:47.777Z,0.60
2023-05-09T02:19:16.989Z,0.80
2023-05-09T02:21:45.424Z,0.60
2023-05-09T02:24:14.222Z,0.80
2023-05-09T02:26:43.319Z,0.70
2023-05-09T02:29:13.186Z,0.50
2023-05-09T02:31:43.992Z,0.70
2023-05-09T02:34:15.362Z,0.80
2023-05-09T02:36:44.587Z,0.60
2023-05-09T02:39:13.324Z,0.70
2023-05-09T02:41:41.749Z,0.70
2023-05-09T02:44:10.089Z,0.63
2023-05-09T02:46:38.468Z,0.60
2023-05-09T02:49:07.191Z,0.70
2023-05-09T02:51:37.038Z,0.60
2023-05-09T02:54:06.586Z,0.67
2023-05-09T02:56:35.006Z,0.67
2023-05-09T02:59:03.557Z,1.07
2023-05-09T03:01:32.111Z,0.80
2023-05-09T03:04:00.556Z,0.80
2023-05-09T03:06:29.133Z,0.80
2023-05-09T03:08:58.890Z,0.70
2023-05-09T03:11:27.847Z,0.80
2023-05-09T03:13:56.361Z,1.10
2023-05-09T03:16:24.996Z,0.90
2023-05-09T03:18:53.598Z,0.90
2023-05-09T03:21:23.132Z,1.00
2023-05-09T03:23:51.755Z,0.80
2023-05-09T03:26:23.660Z,1.10
2023-05-09T03:28:52.534Z,0.60
2023-05-09T03:31:21.545Z,0.80
2023-05-09T03:33:50.196Z,0.80
2023-05-09T03:36:18.669Z,0.80
2023-05-09T03:38:47.228Z,0.83
2023-05-09T03:41:17.811Z,0.70
2023-05-09T03:43:50.897Z,0.77
2023-05-09T03:46:19.428Z,0.97
2023-05-09T03:48:49.891Z,0.70
2023-05-09T03:51:18.875Z,0.90
2023-05-09T03:53:47.841Z,1.00
2023-05-09T03:56:17.048Z,0.70
2023-05-09T03:58:53.646Z,0.70
2023-05-09T04:01:22.718Z,0.73
2023-05-09T04:03:52.348Z,1.00
2023-05-09T04:06:22.103Z,0.90
2023-05-09T04:08:50.517Z,1.00
2023-05-09T04:11:21.829Z,1.00
2023-05-09T04:13:51.102Z,0.90
2023-05-09T04:16:39.607Z,0.80
2023-05-09T04:19:08.467Z,0.80
2023-05-09T04:21:37.712Z,0.70
2023-05-09T04:24:07.501Z,0.60
2023-05-09T04:26:48.384Z,0.70
2023-05-09T04:29:21.362Z,0.93
2023-05-09T04:31:56.528Z,0.70
2023-05-09T04:34:29.843Z,0.77
2023-05-09T04:37:03.065Z,1.00
2023-05-09T04:39:32.266Z,0.80
2023-05-09T04:42:07.710Z,0.70
2023-05-09T04:44:36.282Z,0.80
2023-05-09T04:47:06.821Z,0.97
2023-05-09T04:49:35.361Z,0.80
2023-05-09T04:52:04.093Z,0.90
2023-05-09T04:54:32.552Z,0.70
2023-05-09T04:57:13.651Z,0.83
2023-05-09T04:59:43.654Z,0.77
2023-05-09T05:02:16.188Z,0.80
2023-05-09T05:04:45.113Z,0.80
2023-05-09T05:07:13.974Z,1.70
2023-05-09T05:09:42.571Z,0.93
2023-05-09T05:12:11.184Z,0.70
2023-05-09T05:14:41.459Z,0.80
2023-05-09T05:17:12.179Z,0.90
2023-05-09T05:19:41.955Z,0.80
2023-05-09T05:22:10.488Z,0.90
2023-05-09T05:24:41.478Z,1.07
2023-05-09T05:27:10.481Z,0.80
2023-05-09T05:29:39.091Z,0.73
2023-05-09T05:32:08.011Z,0.70
2023-05-09T05:34:36.496Z,0.90
2023-05-09T05:37:06.723Z,0.80
2023-05-09T05:39:35.352Z,0.97
2023-05-09T05:42:04.654Z,0.87
2023-05-09T05:44:33.151Z,1.10
2023-05-09T05:47:01.703Z,0.80
2023-05-09T05:49:30.282Z,1.13
2023-05-09T05:51:58.755Z,1.00
2023-05-09T05:54:29.252Z,0.80
2023-05-09T05:56:57.664Z,1.10
2023-05-09T05:59:26.291Z,0.90
2023-05-09T06:01:54.955Z,0.80
2023-05-09T06:04:23.570Z,0.90
2023-05-09T06:06:52.381Z,0.97
2023-05-09T06:09:20.989Z,0.77
2023-05-09T06:11:50.885Z,0.90
2023-05-09T06:14:19.224Z,0.90
2023-05-09T06:16:48.033Z,0.80
2023-05-09T06:19:16.501Z,1.33
2023-05-09T06:21:45.060Z,1.10
2023-05-09T06:24:23.470Z,0.90
2023-05-09T06:26:57.846Z,1.17
2023-05-09T06:29:26.371Z,1.00
2023-05-09T06:31:55.645Z,0.70
2023-05-09T06:34:24.311Z,1.30
2023-05-09T06:36:52.771Z,1.07
2023-05-09T06:39:21.143Z,0.83
2023-05-09T06:41:49.520Z,1.17
2023-05-09T06:44:27.329Z,1.10
2023-05-09T06:46:55.860Z,0.70
2023-05-09T06:49:24.181Z,0.90
2023-05-09T06:51:52.525Z,1.70
2023-05-09T06:54:20.976Z,1.30
2023-05-09T06:56:49.358Z,0.90
2023-05-09T06:59:18.132Z,1.17
2023-05-09T07:01:48.178Z,1.00
2023-05-09T07:04:16.640Z,1.00
2023-05-09T07:06:45.077Z,1.33
2023-05-09T07:09:15.417Z,1.67
2023-05-09T07:11:43.839Z,2.87
2023-05-09T07:14:12.289Z,2.00
2023-05-09T07:16:40.668Z,1.30
2023-05-09T07:19:10.945Z,0.65
2023-05-09T07:21:39.388Z,0.60
2023-05-09T07:24:08.446Z,0.60
2023-05-09T07:26:36.977Z,1.00
2023-05-09T07:29:05.451Z,0.60
2023-05-09T07:31:37.257Z,0.60
2023-05-09T07:34:06.070Z,0.65
2023-05-09T07:39:08.304Z,0.70
2023-05-09T07:41:36.614Z,0.80
2023-05-09T07:44:05.060Z,1.15
2023-05-09T07:46:33.463Z,0.98
2023-05-09T07:49:01.788Z,1.15
2023-05-09T07:51:30.287Z,1.00
2023-05-09T07:54:00.133Z,0.60
2023-05-09T07:56:28.571Z,0.90
2023-05-09T07:58:57.014Z,0.70
2023-05-09T08:01:25.398Z,0.80
2023-05-09T08:03:54.031Z,0.80
2023-05-09T08:06:22.510Z,0.60
2023-05-09T08:08:51.279Z,0.90
2023-05-09T08:11:21.508Z,0.60
2023-05-09T08:13:49.948Z,0.80
2023-05-09T08:16:18.304Z,0.70
2023-05-09T08:18:47.246Z,0.80
2023-05-09T08:21:15.601Z,0.80
2023-05-09T08:23:44.011Z,0.83
2023-05-09T08:26:12.591Z,1.15
2023-05-09T08:28:42.394Z,0.50
2023-05-09T08:31:10.900Z,0.90
2023-05-09T08:33:41.705Z,0.60
2023-05-09T08:36:10.732Z,0.67
2023-05-09T08:38:40.790Z,0.63
2023-05-09T08:41:09.345Z,0.87
2023-05-09T08:43:39.342Z,0.73
2023-05-09T08:46:11.235Z,1.03
2023-05-09T08:48:41.105Z,0.60
2023-05-09T08:51:11.157Z,0.70
2023-05-09T08:53:41.249Z,0.60
2023-05-09T08:56:10.007Z,0.67
2023-05-09T08:58:39.446Z,0.53
2023-05-09T09:01:09.896Z,0.60
2023-05-09T09:03:39.306Z,0.70
2023-05-09T09:06:10.512Z,0.70
2023-05-09T09:08:39.276Z,0.70
2023-05-09T09:11:08.617Z,0.80
2023-05-09T09:13:41.272Z,0.80
2023-05-09T09:16:19.945Z,0.80
2023-05-09T09:18:49.206Z,0.67
2023-05-09T09:21:18.083Z,0.60
2023-05-09T09:23:48.754Z,0.80
2023-05-09T09:26:17.596Z,0.70
2023-05-09T09:28:45.932Z,0.70
2023-05-09T09:31:22.999Z,0.60
2023-05-09T09:33:52.447Z,0.63
2023-05-09T09:36:29.019Z,0.70
2023-05-09T09:39:01.598Z,0.77
2023-05-09T09:41:34.243Z,0.60
2023-05-09T09:44:09.483Z,0.80
2023-05-09T09:46:46.697Z,0.80
2023-05-09T09:49:15.920Z,0.70
2023-05-09T09:51:44.757Z,0.85
2023-05-09T09:54:14.337Z,0.88
2023-05-09T09:56:45.074Z,1.13
2023-05-09T09:59:14.731Z,0.70
2023-05-09T10:02:06.611Z,0.70
2023-05-09T10:04:39.209Z,0.70
2023-05-09T10:07:09.028Z,1.48
2023-05-09T10:09:39.018Z,0.95
2023-05-09T10:12:09.615Z,0.80
2023-05-09T10:14:43.313Z,0.95
2023-05-09T10:17:16.108Z,0.80
2023-05-09T10:19:47.720Z,0.88
2023-05-09T10:22:19.404Z,0.80
2023-05-09T10:24:52.588Z,0.90
2023-05-09T10:27:24.018Z,0.70
2023-05-09T10:29:58.805Z,0.70
2023-05-09T10:32:33.261Z,0.65
2023-05-09T10:35:07.008Z,1.00
2023-05-09T10:37:35.629Z,0.75
2023-05-09T10:40:05.973Z,0.70
2023-05-09T10:42:34.390Z,0.60
2023-05-09T10:45:03.251Z,0.60
2023-05-09T10:47:33.602Z,0.60
2023-05-09T10:50:02.438Z,0.65
2023-05-09T10:52:34.492Z,0.60
2023-05-09T10:55:04.375Z,0.60
2023-05-09T10:57:33.456Z,0.70
2023-05-09T11:00:02.018Z,0.90
2023-05-09T11:02:32.554Z,1.00
2023-05-09T11:05:18.770Z,0.90
2023-05-09T11:07:48.332Z,0.82
2023-05-09T11:10:18.666Z,0.80
2023-05-09T11:12:58.364Z,0.75
2023-05-09T11:15:28.056Z,0.80
2023-05-09T11:18:08.137Z,0.80
2023-05-09T11:20:44.444Z,0.90
2023-05-09T11:23:15.911Z,0.98
2023-05-09T11:25:47.556Z,0.80
2023-05-09T11:28:29.042Z,0.88
2023-05-09T11:31:11.418Z,0.80
2023-05-09T11:33:40.877Z,0.80
2023-05-09T11:36:25.513Z,0.80
2023-05-09T11:39:06.627Z,0.80
2023-05-09T11:41:43.263Z,0.93
2023-05-09T11:44:19.206Z,0.80
2023-05-09T11:46:48.528Z,0.80
2023-05-09T11:49:17.296Z,0.80
2023-05-09T11:51:47.106Z,0.80
2023-05-09T11:54:15.623Z,0.50
2023-05-09T11:56:44.397Z,0.70
2023-05-09T11:59:14.864Z,0.90
2023-05-09T12:01:43.893Z,0.85
2023-05-09T12:04:12.469Z,0.70
2023-05-09T12:06:41.143Z,0.60
2023-05-09T12:09:11.715Z,0.60
2023-05-09T12:11:40.108Z,0.50
2023-05-09T12:14:08.784Z,0.35
2023-05-09T12:16:46.360Z,0.30
2023-05-09T12:19:15.286Z,0.40
2023-05-09T12:21:43.687Z,0.47
2023-05-09T12:24:13.482Z,0.40
2023-05-09T12:26:42.013Z,0.40
2023-05-09T12:29:10.521Z,0.60
2023-05-09T12:31:39.150Z,0.50
2023-05-09T12:34:08.093Z,0.90
2023-05-09T12:36:37.275Z,0.50
2023-05-09T12:39:10.812Z,0.40
2023-05-09T12:41:57.322Z,0.40
2023-05-09T12:44:28.294Z,0.65
2023-05-09T12:46:58.406Z,0.50
2023-05-09T12:49:27.172Z,0.70
2023-05-09T12:51:56.870Z,0.60
2023-05-09T12:54:27.088Z,0.65
2023-05-09T12:56:59.372Z,0.50
2023-05-09T12:59:29.342Z,0.68
2023-05-09T13:01:59.079Z,0.60
2023-05-09T13:04:28.976Z,0.70
2023-05-09T13:07:00.122Z,0.60
2023-05-09T13:09:28.793Z,0.45
2023-05-09T13:11:58.562Z,0.50
2023-05-09T13:14:27.076Z,0.60
2023-05-09T13:16:55.684Z,0.60
2023-05-09T13:19:24.117Z,0.60
2023-05-09T13:21:52.915Z,0.53
2023-05-09T13:24:21.261Z,0.60
2023-05-09T13:26:49.704Z,0.70
2023-05-09T13:29:19.439Z,0.90
2023-05-09T13:31:47.899Z,0.60
2023-05-09T13:34:18.518Z,0.60
2023-05-09T13:36:46.801Z,0.80
2023-05-09T13:39:15.096Z,0.80
2023-05-09T13:41:43.704Z,0.70
2023-05-09T13:44:13.055Z,0.90
2023-05-09T13:46:43.255Z,0.70
2023-05-09T13:49:11.916Z,0.80
2023-05-09T13:51:41.250Z,0.87
2023-05-09T13:54:12.830Z,0.70
2023-05-09T13:56:41.779Z,1.00
2023-05-09T13:59:10.651Z,1.13
2023-05-09T14:01:39.360Z,0.70
2023-05-09T14:04:09.762Z,0.90
2023-05-09T14:06:38.268Z,1.00
2023-05-09T14:09:07.595Z,0.97
2023-05-09T14:11:35.983Z,1.40
2023-05-09T14:14:05.517Z,1.00
2023-05-09T14:16:34.088Z,1.20
2023-05-09T14:19:02.736Z,0.90
2023-05-09T14:21:32.533Z,1.17
2023-05-09T14:24:00.871Z,1.10
2023-05-09T14:26:30.520Z,1.00
2023-05-09T14:28:58.890Z,1.10
2023-05-09T14:31:27.610Z,1.23
2023-05-09T14:33:55.994Z,0.80
2023-05-09T14:36:24.492Z,0.80
2023-05-09T14:38:54.484Z,0.80
2023-05-09T14:41:22.995Z,0.87
2023-05-09T14:43:51.384Z,1.20
2023-05-09T14:46:19.931Z,0.83
2023-05-09T14:48:48.399Z,0.53
2023-05-09T14:51:16.776Z,0.60
2023-05-09T14:53:47.335Z,0.60
2023-05-09T14:56:17.200Z,0.57
2023-05-09T14:58:45.537Z,0.70
2023-05-09T15:01:14.432Z,0.60
2023-05-09T15:03:42.883Z,0.63
2023-05-09T15:06:12.464Z,0.50
2023-05-09T15:08:42.011Z,0.80
2023-05-09T15:11:10.379Z,0.60
2023-05-09T15:13:40.165Z,0.43
2023-05-09T15:16:09.178Z,0.40
2023-05-09T15:18:37.628Z,0.60
2023-05-09T15:21:06.546Z,0.40
2023-05-09T15:23:36.060Z,0.60
2023-05-09T15:26:04.626Z,0.43
2023-05-09T15:28:33.050Z,0.40
2023-05-09T15:31:03.892Z,0.60
2023-05-09T15:33:32.763Z,0.30
2023-05-09T15:36:01.783Z,0.40
2023-05-09T15:38:30.734Z,0.33
2023-05-09T15:40:59.112Z,0.50
2023-05-09T15:43:28.562Z,0.50
2023-05-09T15:45:57.258Z,0.60
2023-05-09T15:48:27.370Z,0.40
2023-05-09T15:50:55.787Z,0.50
2023-05-09T15:53:24.378Z,0.40
2023-05-09T15:55:52.787Z,0.77
2023-05-09T15:58:21.187Z,0.40
2023-05-09T16:00:49.773Z,0.40
2023-05-09T16:03:18.647Z,0.40
2023-05-09T16:05:48.583Z,0.40
2023-05-09T16:08:17.237Z,0.20
2023-05-09T16:10:49.084Z,0.40
2023-05-09T16:13:18.325Z,0.30
2023-05-09T16:15:48.038Z,0.30
2023-05-09T16:18:16.528Z,0.30
2023-05-09T16:20:45.131Z,0.30
2023-05-09T16:23:14.912Z,0.20
2023-05-09T16:25:43.288Z,0.30
2023-05-09T16:28:11.758Z,0.17
2023-05-09T16:30:40.132Z,0.20
2023-05-09T16:33:08.809Z,0.27
2023-05-09T16:35:37.367Z,0.33
2023-05-09T16:38:05.690Z,0.10
2023-05-09T16:40:35.561Z,0.30
2023-05-09T16:43:04.244Z,0.20
2023-05-09T16:45:32.636Z,0.20
2023-05-09T16:48:02.377Z,0.20
2023-05-09T16:50:31.036Z,0.40
2023-05-09T16:52:59.498Z,0.30
2023-05-09T16:55:27.971Z,0.10
2023-05-09T16:57:57.735Z,0.20
2023-05-09T17:00:26.324Z,0.10
2023-05-09T17:02:54.924Z,0.30
2023-05-09T17:05:23.575Z,0.20
2023-05-09T17:07:51.964Z,0.13
2023-05-09T17:10:20.428Z,0.10
2023-05-09T17:12:48.854Z,0.20
2023-05-09T17:15:18.665Z,0.10
2023-05-09T17:17:48.175Z,0.10
2023-05-09T17:20:16.997Z,0.10
2023-05-09T17:22:45.656Z,0.13
2023-05-09T17:25:14.964Z,0.20
2023-05-09T17:27:45.217Z,0.20
2023-05-09T17:30:14.880Z,0.10
2023-05-09T17:32:44.955Z,0.10
2023-05-09T17:35:13.952Z,0.10
2023-05-09T17:37:42.652Z,0.20
2023-05-09T17:40:12.189Z,0.10
2023-05-09T17:42:42.035Z,0.10
2023-05-09T17:45:12.488Z,0.10
2023-05-09T17:47:41.489Z,0.10
2023-05-09T17:50:14.835Z,0.20
2023-05-09T17:52:43.792Z,0.10
2023-05-09T17:55:14.912Z,0.10
2023-05-09T17:57:43.569Z,0.20
2023-05-09T18:00:14.326Z,0.10
2023-05-09T18:02:43.102Z,0.00
2023-05-09T18:05:12.961Z,0.00
2023-05-09T18:07:41.430Z,0.10
2023-05-09T18:10:10.991Z,0.30
2023-05-09T18:12:39.469Z,0.10
2023-05-09T18:15:09.127Z,0.10
2023-05-09T18:17:39.675Z,0.10
2023-05-09T18:20:15.153Z,0.10
2023-05-09T18:22:45.347Z,0.20
2023-05-09T18:25:13.854Z,0.00
2023-05-09T18:27:42.776Z,0.10
2023-05-09T18:30:11.814Z,0.03
2023-05-09T18:32:40.429Z,0.10
2023-05-09T18:35:10.480Z,0.00
2023-05-09T18:37:40.366Z,0.07
2023-05-09T18:40:15.905Z,0.10
2023-05-09T18:42:46.768Z,0.00
2023-05-09T18:45:22.002Z,0.20
2023-05-09T18:47:51.324Z,0.30
2023-05-09T18:50:19.889Z,0.30
2023-05-09T18:52:49.725Z,0.40
2023-05-09T18:55:19.909Z,0.30
2023-05-09T18:57:48.420Z,0.20
2023-05-09T19:00:17.803Z,0.20
2023-05-09T19:02:46.450Z,0.20
2023-05-09T19:05:16.042Z,0.20
2023-05-09T19:07:44.402Z,0.10
2023-05-09T19:10:18.171Z,0.20
2023-05-09T19:12:47.304Z,0.10
2023-05-09T19:15:15.927Z,0.30
2023-05-09T19:17:44.437Z,0.17
2023-05-09T19:20:14.204Z,0.20
2023-05-09T19:22:48.339Z,0.80
2023-05-09T19:25:18.925Z,0.10
2023-05-09T19:27:48.022Z,0.17
2023-05-09T19:30:17.115Z,0.20
2023-05-09T19:32:45.992Z,0.20
2023-05-09T19:35:14.452Z,0.10
2023-05-09T19:37:42.898Z,0.40
2023-05-09T19:40:11.997Z,0.30
2023-05-09T19:42:42.055Z,0.20
2023-05-09T19:45:11.501Z,0.20
2023-05-09T19:47:39.891Z,0.20
2023-05-09T19:50:10.226Z,0.10
2023-05-09T19:52:38.742Z,0.10
2023-05-09T19:55:08.017Z,0.20
2023-05-09T19:57:36.533Z,0.20
2023-05-09T20:00:07.469Z,0.10
2023-05-09T20:02:36.961Z,0.30
2023-05-09T20:05:05.626Z,0.10
2023-05-09T20:07:34.079Z,0.20
2023-05-09T20:10:03.675Z,0.10
2023-05-09T20:12:33.040Z,0.10
2023-05-09T20:15:02.097Z,0.13
2023-05-09T20:17:32.302Z,0.20
2023-05-09T20:20:00.701Z,0.20
2023-05-09T20:22:29.230Z,0.23
2023-05-09T20:24:57.641Z,0.20
2023-05-09T20:27:26.456Z,0.20
2023-05-09T20:29:54.967Z,0.20
2023-05-09T20:32:23.981Z,0.20
2023-05-09T20:34:53.741Z,0.20
2023-05-09T20:37:22.234Z,0.50
2023-05-09T20:39:50.733Z,0.30
2023-05-09T20:42:19.424Z,0.30
2023-05-09T20:44:48.829Z,0.30
2023-05-09T20:47:18.286Z,0.23
2023-05-09T20:49:46.783Z,0.27
2023-05-09T20:52:16.809Z,0.20
2023-05-09T20:54:47.192Z,0.20
2023-05-09T20:57:15.693Z,0.20
2023-05-09T20:59:44.251Z,0.33
2023-05-09T21:02:13.752Z,0.30
2023-05-09T21:04:42.233Z,0.23
2023-05-09T21:07:12.103Z,0.27
2023-05-09T21:09:42.784Z,0.30
2023-05-09T21:12:11.397Z,0.30
2023-05-09T21:14:39.878Z,0.20
2023-05-09T21:17:09.288Z,0.40
2023-05-09T21:19:37.779Z,0.20
2023-05-09T21:22:06.249Z,0.30
2023-05-09T21:24:34.734Z,0.20
2023-05-09T21:27:04.938Z,0.57
2023-05-09T21:29:33.388Z,0.20
2023-05-09T21:32:01.818Z,0.23
2023-05-09T21:34:30.322Z,0.20
2023-05-09T21:36:58.698Z,0.20
2023-05-09T21:39:27.061Z,0.20
2023-05-09T21:41:55.447Z,0.20
2023-05-09T21:44:25.348Z,0.20
2023-05-09T21:46:53.820Z,0.10
2023-05-09T21:49:22.279Z,0.10
2023-05-09T21:51:50.775Z,0.10
2023-05-09T21:54:19.233Z,0.20
2023-05-09T21:56:47.808Z,0.20
2023-05-09T21:59:17.827Z,0.13
2023-05-09T22:01:53.942Z,0.20
2023-05-09T22:04:22.530Z,0.30
2023-05-09T22:06:50.964Z,0.30
2023-05-09T22:09:19.480Z,0.30
2023-05-09T22:11:47.829Z,0.20
2023-05-09T22:14:16.338Z,0.17
2023-05-09T22:16:44.784Z,0.20
2023-05-09T22:19:14.740Z,0.23
2023-05-09T22:21:43.131Z,0.27
2023-05-09T22:24:11.704Z,0.20
2023-05-09T22:26:40.126Z,0.23
2023-05-09T22:29:08.805Z,0.20
2023-05-09T22:31:37.514Z,0.13
2023-05-09T22:34:06.225Z,0.10
2023-05-09T22:36:36.035Z,0.10
2023-05-09T22:39:04.638Z,0.20
2023-05-09T22:41:32.986Z,0.20
2023-05-09T22:44:01.432Z,0.20
2023-05-09T22:46:29.836Z,0.10
2023-05-09T22:48:58.351Z,0.20
2023-05-09T22:51:27.872Z,0.13
2023-05-09T22:53:57.649Z,0.20
2023-05-09T22:56:26.535Z,0.30
2023-05-09T22:58:54.900Z,0.20
2023-05-09T23:01:23.321Z,0.20
2023-05-09T23:03:51.765Z,0.30
2023-05-09T23:06:20.384Z,0.20
2023-05-09T23:08:48.912Z,0.40
2023-05-09T23:11:20.528Z,0.10
2023-05-09T23:13:48.913Z,0.20
2023-05-09T23:16:17.417Z,0.27
2023-05-09T23:18:46.007Z,0.20
2023-05-09T23:21:14.289Z,0.30
2023-05-09T23:23:42.732Z,0.20
2023-05-09T23:26:11.134Z,0.30
2023-05-09T23:28:40.888Z,0.20
2023-05-09T23:31:09.916Z,0.20
2023-05-09T23:33:38.436Z,0.17
2023-05-09T23:36:07.333Z,0.20
2023-05-09T23:38:35.722Z,0.10
2023-05-09T23:41:04.116Z,0.27
2023-05-09T23:43:32.830Z,0.40
2023-05-09T23:46:02.658Z,0.20
2023-05-09T23:48:31.189Z,0.20
2023-05-09T23:50:59.522Z,0.27
2023-05-09T23:53:27.994Z,0.13
2023-05-09T23:55:56.469Z,0.20
2023-05-09T23:58:24.870Z,0.17
